createdAt,value
2022-07-26T00:00:05.551Z,100.00
2022-07-26T00:02:32.132Z,100.00
2022-07-26T00:04:58.774Z,100.00
2022-07-26T00:07:25.329Z,100.00
2022-07-26T00:09:51.846Z,100.00
2022-07-26T00:12:18.812Z,100.00
2022-07-26T00:14:45.338Z,100.00
2022-07-26T00:17:12.139Z,100.00
2022-07-26T00:19:38.646Z,100.00
2022-07-26T00:22:23.816Z,100.00
2022-07-26T00:24:50.417Z,100.00
2022-07-26T00:27:16.969Z,100.00
2022-07-26T00:29:43.691Z,100.00
2022-07-26T00:32:11.623Z,100.00
2022-07-26T00:34:38.224Z,100.00
2022-07-26T00:37:04.873Z,100.00
2022-07-26T00:39:31.553Z,100.00
2022-07-26T00:41:58.152Z,100.00
2022-07-26T00:44:24.765Z,100.00
2022-07-26T00:46:51.298Z,100.00
2022-07-26T00:49:18.056Z,100.00
2022-07-26T00:51:46.390Z,100.00
2022-07-26T00:54:13.373Z,100.00
2022-07-26T00:56:40.113Z,100.00
2022-07-26T00:59:06.951Z,100.00
2022-07-26T01:01:33.932Z,100.00
2022-07-26T01:04:00.710Z,100.00
2022-07-26T01:06:27.700Z,100.00
2022-07-26T01:08:54.763Z,100.00
2022-07-26T01:11:21.370Z,100.00
2022-07-26T01:13:49.226Z,100.00
2022-07-26T01:16:15.834Z,100.00
2022-07-26T01:18:42.661Z,100.00
2022-07-26T01:21:13.837Z,100.00
2022-07-26T01:23:41.929Z,100.00
2022-07-26T01:26:08.547Z,100.00
2022-07-26T01:28:39.929Z,100.00
2022-07-26T01:31:07.590Z,100.00
2022-07-26T01:33:34.620Z,100.00
2022-07-26T01:36:01.604Z,100.00
2022-07-26T01:38:28.555Z,100.00
2022-07-26T01:40:55.274Z,100.00
2022-07-26T01:43:21.835Z,100.00
2022-07-26T01:45:48.685Z,100.00
2022-07-26T01:48:15.442Z,100.00
2022-07-26T01:50:41.958Z,100.00
2022-07-26T01:53:08.500Z,100.00
2022-07-26T01:55:35.531Z,100.00
2022-07-26T01:58:03.161Z,100.00
2022-07-26T02:00:29.662Z,100.00
2022-07-26T02:02:56.328Z,100.00
2022-07-26T02:05:22.988Z,100.00
2022-07-26T02:07:49.736Z,100.00
2022-07-26T02:10:17.344Z,100.00
2022-07-26T02:12:44.471Z,100.00
2022-07-26T02:15:12.523Z,100.00
2022-07-26T02:17:39.108Z,100.00
2022-07-26T02:20:06.673Z,100.00
2022-07-26T02:22:33.208Z,100.00
2022-07-26T02:25:04.757Z,100.00
2022-07-26T02:27:32.272Z,100.00
2022-07-26T02:29:58.802Z,100.00
2022-07-26T02:32:25.291Z,100.00
2022-07-26T02:34:51.840Z,100.00
2022-07-26T02:37:18.436Z,100.00
2022-07-26T02:39:45.081Z,100.00
2022-07-26T02:42:11.586Z,100.00
2022-07-26T02:44:38.104Z,100.00
2022-07-26T02:47:04.735Z,100.00
2022-07-26T02:49:31.259Z,100.00
2022-07-26T02:51:57.847Z,100.00
2022-07-26T02:54:24.409Z,100.00
2022-07-26T02:56:50.907Z,100.00
2022-07-26T02:59:17.422Z,100.00
2022-07-26T03:01:44.010Z,100.00
2022-07-26T03:04:10.991Z,100.00
2022-07-26T03:06:37.909Z,100.00
2022-07-26T03:09:04.940Z,100.00
2022-07-26T03:11:31.468Z,100.00
2022-07-26T03:13:57.988Z,100.00
2022-07-26T03:16:29.041Z,100.00
2022-07-26T03:18:56.613Z,100.00
2022-07-26T03:21:23.218Z,100.00
2022-07-26T03:23:49.745Z,100.00
2022-07-26T03:26:16.352Z,100.00
2022-07-26T03:28:44.482Z,100.00
2022-07-26T03:31:11.899Z,100.00
2022-07-26T03:33:39.573Z,100.00
2022-07-26T03:36:07.063Z,100.00
2022-07-26T03:38:38.308Z,100.00
2022-07-26T03:41:04.869Z,100.00
2022-07-26T03:43:31.374Z,100.00
2022-07-26T03:46:03.131Z,100.00
2022-07-26T03:48:31.002Z,100.00
2022-07-26T03:50:57.695Z,100.00
2022-07-26T03:53:24.340Z,100.00
2022-07-26T03:56:10.387Z,100.00
2022-07-26T03:58:37.341Z,100.00
2022-07-26T04:01:04.119Z,100.00
2022-07-26T04:03:30.745Z,100.00
2022-07-26T04:05:57.712Z,100.00
2022-07-26T04:08:24.839Z,100.00
2022-07-26T04:10:51.541Z,100.00
2022-07-26T04:13:19.093Z,100.00
2022-07-26T04:15:45.720Z,100.00
2022-07-26T04:18:27.620Z,100.00
2022-07-26T04:20:54.242Z,100.00
2022-07-26T04:23:20.929Z,100.00
2022-07-26T04:25:47.468Z,100.00
2022-07-26T04:28:14.210Z,100.00
2022-07-26T04:30:41.079Z,100.00
2022-07-26T04:33:07.709Z,100.00
2022-07-26T04:35:34.392Z,100.00
2022-07-26T04:38:02.285Z,100.00
2022-07-26T04:40:33.361Z,100.00
2022-07-26T04:43:01.479Z,100.00
2022-07-26T04:45:28.755Z,100.00
2022-07-26T04:47:55.278Z,100.00
2022-07-26T04:50:22.774Z,100.00
2022-07-26T04:52:50.470Z,100.00
2022-07-26T04:55:17.840Z,100.00
2022-07-26T04:57:47.477Z,100.00
2022-07-26T05:00:21.746Z,100.00
2022-07-26T05:02:49.747Z,100.00
2022-07-26T05:05:16.451Z,100.00
2022-07-26T05:07:48.039Z,100.00
2022-07-26T05:10:15.962Z,100.00
2022-07-26T05:12:42.701Z,100.00
2022-07-26T05:15:14.027Z,100.00
2022-07-26T05:17:43.095Z,100.00
2022-07-26T05:20:11.899Z,100.00
2022-07-26T05:22:38.984Z,100.00
2022-07-26T05:25:06.358Z,100.00
2022-07-26T05:27:33.164Z,100.00
2022-07-26T05:29:59.798Z,100.00
2022-07-26T05:32:28.067Z,100.00
2022-07-26T05:34:54.724Z,100.00
2022-07-26T05:37:21.236Z,100.00
2022-07-26T05:39:47.808Z,100.00
2022-07-26T05:42:14.322Z,100.00
2022-07-26T05:44:42.635Z,100.00
2022-07-26T05:47:09.634Z,100.00
2022-07-26T05:49:40.534Z,100.00
2022-07-26T05:52:08.274Z,100.00
2022-07-26T05:54:35.406Z,100.00
2022-07-26T05:57:02.009Z,100.00
2022-07-26T05:59:28.868Z,100.00
2022-07-26T06:01:56.719Z,100.00
2022-07-26T06:04:26.888Z,100.00
2022-07-26T06:06:55.132Z,100.00
2022-07-26T06:09:24.156Z,100.00
2022-07-26T06:11:51.063Z,100.00
2022-07-26T06:14:18.181Z,100.00
2022-07-26T06:16:45.855Z,100.00
2022-07-26T06:19:12.644Z,100.00
2022-07-26T06:21:39.259Z,100.00
2022-07-26T06:24:06.283Z,100.00
2022-07-26T06:26:33.140Z,100.00
2022-07-26T06:28:59.808Z,100.00
2022-07-26T06:31:26.370Z,100.00
2022-07-26T06:33:53.091Z,100.00
2022-07-26T06:36:19.611Z,100.00
2022-07-26T06:38:46.162Z,100.00
2022-07-26T06:41:15.703Z,100.00
2022-07-26T06:43:42.391Z,100.00
2022-07-26T06:46:08.948Z,100.00
2022-07-26T06:48:35.831Z,100.00
2022-07-26T06:51:03.463Z,100.00
2022-07-26T06:53:30.043Z,100.00
2022-07-26T06:55:56.589Z,100.00
2022-07-26T06:58:23.225Z,100.00
2022-07-26T07:00:49.842Z,100.00
2022-07-26T07:03:17.022Z,100.00
2022-07-26T07:05:48.038Z,100.00
2022-07-26T07:08:16.545Z,100.00
2022-07-26T07:10:44.668Z,100.00
2022-07-26T07:13:11.315Z,100.00
2022-07-26T07:15:37.859Z,100.00
2022-07-26T07:18:04.486Z,100.00
2022-07-26T07:20:31.127Z,100.00
2022-07-26T07:22:57.827Z,100.00
2022-07-26T07:25:30.447Z,100.00
2022-07-26T07:27:57.732Z,100.00
2022-07-26T07:30:24.286Z,100.00
2022-07-26T07:32:55.606Z,100.00
2022-07-26T07:35:23.491Z,100.00
2022-07-26T07:37:52.978Z,100.00
2022-07-26T07:40:21.835Z,100.00
2022-07-26T07:42:49.214Z,100.00
2022-07-26T07:45:15.789Z,100.00
2022-07-26T07:50:27.340Z,100.00
2022-07-26T07:52:55.170Z,100.00
2022-07-26T07:55:40.648Z,100.00
2022-07-26T07:58:10.158Z,100.00
2022-07-26T08:03:02.642Z,100.00
2022-07-26T08:05:29.155Z,100.00
2022-07-26T08:07:55.961Z,100.00
2022-07-26T08:10:22.839Z,100.00
2022-07-26T08:12:51.521Z,100.00
2022-07-26T08:15:19.366Z,100.00
2022-07-26T08:17:52.212Z,100.00
2022-07-26T08:20:23.545Z,100.00
2022-07-26T08:22:51.753Z,100.00
2022-07-26T08:25:18.659Z,100.00
2022-07-26T08:30:11.217Z,100.00
2022-07-26T08:32:37.760Z,100.00
2022-07-26T08:35:17.876Z,100.00
2022-07-26T08:37:46.529Z,100.00
2022-07-26T08:40:13.287Z,100.00
2022-07-26T08:42:39.928Z,100.00
2022-07-26T08:45:07.033Z,100.00
2022-07-26T08:47:37.826Z,100.00
2022-07-26T08:50:07.576Z,100.00
2022-07-26T08:52:34.097Z,100.00
2022-07-26T08:55:00.656Z,100.00
2022-07-26T08:57:27.253Z,100.00
2022-07-26T09:00:16.496Z,100.00
2022-07-26T09:02:43.143Z,100.00
2022-07-26T09:07:50.415Z,100.00
2022-07-26T09:10:17.030Z,100.00
2022-07-26T09:12:43.952Z,100.00
2022-07-26T09:15:22.204Z,100.00
2022-07-26T09:20:24.364Z,100.00
2022-07-26T09:23:07.581Z,100.00
2022-07-26T09:25:36.209Z,100.00
2022-07-26T09:28:04.577Z,100.00
2022-07-26T09:30:32.157Z,100.00
2022-07-26T09:32:59.018Z,100.00
2022-07-26T09:40:39.920Z,100.00
2022-07-26T09:43:07.361Z,100.00
2022-07-26T09:45:36.836Z,100.00
2022-07-26T09:48:04.119Z,100.00
2022-07-26T09:50:32.196Z,100.00
2022-07-26T09:53:07.102Z,100.00
2022-07-26T09:58:14.643Z,100.00
2022-07-26T10:00:41.855Z,100.00
2022-07-26T10:03:08.635Z,100.00
2022-07-26T10:05:36.020Z,100.00
2022-07-26T10:08:03.087Z,100.00
2022-07-26T10:10:40.332Z,100.00
2022-07-26T10:13:08.126Z,100.00
2022-07-26T10:15:46.840Z,100.00
2022-07-26T10:18:39.241Z,100.00
2022-07-26T10:21:21.740Z,100.00
2022-07-26T10:24:10.573Z,100.00
2022-07-26T10:26:51.757Z,100.00
2022-07-26T10:29:18.198Z,100.00
2022-07-26T10:31:47.842Z,100.00
2022-07-26T10:34:30.663Z,100.00
2022-07-26T10:36:58.867Z,100.00
2022-07-26T10:39:25.665Z,100.00
2022-07-26T10:42:12.537Z,100.00
2022-07-26T10:44:47.337Z,100.00
2022-07-26T10:47:18.718Z,100.00
2022-07-26T10:49:58.693Z,100.00
2022-07-26T10:52:27.872Z,100.00
2022-07-26T10:54:57.452Z,100.00
2022-07-26T10:57:28.402Z,100.00
2022-07-26T11:02:32.386Z,100.00
2022-07-26T11:05:01.066Z,100.00
2022-07-26T11:07:28.848Z,100.00
2022-07-26T11:09:59.464Z,100.00
2022-07-26T11:12:26.496Z,100.00
2022-07-26T11:14:54.274Z,100.00
2022-07-26T11:17:25.661Z,100.00
2022-07-26T11:19:52.539Z,100.00
2022-07-26T11:22:19.317Z,100.00
2022-07-26T11:24:45.917Z,100.00
2022-07-26T11:27:12.714Z,100.00
2022-07-26T11:29:41.025Z,100.00
2022-07-26T11:32:22.521Z,100.00
2022-07-26T11:35:00.131Z,100.00
2022-07-26T11:39:52.633Z,100.00
2022-07-26T11:42:21.481Z,100.00
2022-07-26T11:44:49.203Z,98.61
2022-07-26T11:47:16.938Z,89.41
2022-07-26T11:50:00.794Z,81.37
2022-07-26T11:52:31.520Z,72.23
2022-07-26T11:54:58.568Z,73.85
2022-07-26T11:57:29.917Z,75.39
2022-07-26T11:59:56.661Z,73.76
2022-07-26T12:02:23.383Z,73.07
2022-07-26T12:04:50.032Z,72.39
2022-07-26T12:07:20.155Z,70.85
2022-07-26T12:09:46.632Z,73.09
2022-07-26T12:12:21.733Z,72.70
2022-07-26T12:15:01.686Z,75.17
2022-07-26T12:17:35.335Z,72.97
2022-07-26T12:20:17.376Z,68.77
2022-07-26T12:23:13.445Z,62.54
2022-07-26T12:25:44.886Z,59.10
2022-07-26T12:28:13.425Z,60.12
2022-07-26T12:33:05.557Z,57.46
2022-07-26T12:35:35.715Z,55.43
2022-07-26T12:40:29.970Z,54.21
2022-07-26T12:43:02.752Z,51.75
2022-07-26T12:45:34.812Z,54.46
2022-07-26T12:50:31.397Z,60.92
2022-07-26T12:53:02.884Z,62.77
2022-07-26T12:55:29.498Z,58.38
2022-07-26T12:57:56.005Z,58.33
2022-07-26T13:00:24.329Z,57.56
2022-07-26T13:02:52.915Z,55.82
2022-07-26T13:05:19.532Z,51.03
2022-07-26T13:07:46.113Z,48.63
2022-07-26T13:12:38.854Z,47.44
2022-07-26T13:17:44.772Z,48.68
2022-07-26T13:20:11.375Z,49.55
2022-07-26T13:22:38.059Z,49.10
2022-07-26T13:25:08.509Z,48.35
2022-07-26T13:27:36.174Z,45.79
2022-07-26T13:30:05.160Z,46.53
2022-07-26T13:32:31.698Z,46.79
2022-07-26T13:34:58.260Z,46.71
2022-07-26T13:37:25.036Z,45.64
2022-07-26T13:39:51.595Z,44.78
2022-07-26T13:42:19.502Z,48.00
2022-07-26T13:44:46.106Z,49.99
2022-07-26T13:47:21.428Z,49.17
2022-07-26T13:49:48.142Z,46.54
2022-07-26T13:52:16.778Z,49.02
2022-07-26T13:57:09.082Z,49.34
2022-07-26T13:59:35.773Z,48.36
2022-07-26T14:02:04.787Z,47.93
2022-07-26T14:04:31.637Z,49.28
2022-07-26T14:06:58.282Z,48.63
2022-07-26T14:11:50.609Z,47.28
2022-07-26T14:16:51.579Z,49.58
2022-07-26T14:19:18.419Z,49.00
2022-07-26T14:21:48.918Z,46.84
2022-07-26T14:24:25.673Z,46.52
2022-07-26T14:26:55.404Z,46.67
2022-07-26T14:29:23.353Z,45.41
2022-07-26T14:31:50.043Z,45.85
2022-07-26T14:34:16.676Z,46.11
2022-07-26T14:36:43.225Z,46.48
2022-07-26T14:39:09.762Z,45.75
2022-07-26T14:41:36.780Z,46.42
2022-07-26T14:44:04.433Z,44.75
2022-07-26T14:46:31.101Z,41.53
2022-07-26T14:48:57.882Z,40.83
2022-07-26T14:51:24.976Z,42.48
2022-07-26T14:53:59.913Z,45.22
2022-07-26T14:56:26.464Z,44.68
2022-07-26T14:58:53.114Z,46.67
2022-07-26T15:01:19.887Z,47.84
2022-07-26T15:03:46.551Z,50.07
2022-07-26T15:06:13.298Z,51.85
2022-07-26T15:08:39.859Z,52.76
2022-07-26T15:11:06.480Z,51.70
2022-07-26T15:13:34.218Z,49.11
2022-07-26T15:16:00.839Z,46.50
2022-07-26T15:18:27.544Z,43.94
2022-07-26T15:20:54.129Z,41.88
2022-07-26T15:23:20.725Z,42.21
2022-07-26T15:25:48.636Z,41.97
2022-07-26T15:28:15.784Z,40.91
2022-07-26T15:30:42.643Z,41.16
2022-07-26T15:33:09.252Z,38.76
2022-07-26T15:35:37.122Z,39.48
2022-07-26T15:38:04.235Z,41.06
2022-07-26T15:40:30.793Z,39.40
2022-07-26T15:42:57.399Z,37.92
2022-07-26T15:45:25.062Z,37.10
2022-07-26T15:50:33.191Z,37.97
2022-07-26T15:53:07.829Z,39.42
2022-07-26T15:55:34.562Z,39.59
2022-07-26T15:58:01.215Z,40.02
2022-07-26T16:00:27.815Z,41.00
2022-07-26T16:02:54.576Z,42.56
2022-07-26T16:05:33.299Z,44.83
2022-07-26T16:07:59.846Z,45.79
2022-07-26T16:10:26.392Z,44.44
2022-07-26T16:12:52.982Z,45.85
2022-07-26T16:15:19.578Z,48.14
2022-07-26T16:17:46.525Z,53.83
2022-07-26T16:20:13.058Z,55.24
2022-07-26T16:22:41.674Z,55.46
2022-07-26T16:25:09.378Z,58.73
2022-07-26T16:27:35.942Z,60.94
2022-07-26T16:30:02.553Z,60.63
2022-07-26T16:32:29.087Z,59.59
2022-07-26T16:34:55.619Z,57.70
2022-07-26T16:37:22.321Z,55.41
2022-07-26T16:39:48.918Z,56.84
2022-07-26T16:42:15.469Z,57.08
2022-07-26T16:44:42.025Z,57.00
2022-07-26T16:47:12.616Z,55.99
2022-07-26T16:49:39.281Z,55.85
2022-07-26T16:52:05.903Z,58.21
2022-07-26T16:54:33.123Z,58.20
2022-07-26T16:57:00.340Z,60.71
2022-07-26T16:59:28.781Z,62.93
2022-07-26T17:01:55.478Z,63.31
2022-07-26T17:04:30.686Z,63.63
2022-07-26T17:07:23.462Z,65.30
2022-07-26T17:09:43.882Z,64.77
2022-07-26T17:12:10.394Z,63.36
2022-07-26T17:14:36.897Z,62.58
2022-07-26T17:17:03.443Z,59.95
2022-07-26T17:19:29.990Z,53.83
2022-07-26T17:21:56.545Z,51.16
2022-07-26T17:24:23.073Z,50.63
2022-07-26T17:26:49.663Z,50.07
2022-07-26T17:29:16.233Z,51.74
2022-07-26T17:31:42.791Z,52.35
2022-07-26T17:34:09.804Z,55.13
2022-07-26T17:36:37.096Z,57.38
2022-07-26T17:39:04.251Z,59.21
2022-07-26T17:41:33.090Z,62.70
2022-07-26T17:44:02.984Z,65.22
2022-07-26T17:46:32.512Z,67.61
2022-07-26T17:48:59.821Z,69.55
2022-07-26T17:51:26.408Z,71.85
2022-07-26T17:53:53.455Z,72.97
2022-07-26T17:56:20.051Z,74.58
2022-07-26T17:58:46.649Z,75.33
2022-07-26T18:01:13.226Z,76.53
2022-07-26T18:03:39.822Z,77.08
2022-07-26T18:06:06.745Z,77.83
2022-07-26T18:08:33.534Z,77.29
2022-07-26T18:11:00.773Z,77.03
2022-07-26T18:13:27.558Z,76.34
2022-07-26T18:15:54.216Z,77.54
2022-07-26T18:18:20.991Z,77.06
2022-07-26T18:20:47.641Z,77.36
2022-07-26T18:23:14.334Z,77.36
2022-07-26T18:25:41.336Z,76.99
2022-07-26T18:28:08.067Z,77.96
2022-07-26T18:30:35.062Z,79.62
2022-07-26T18:33:01.863Z,79.81
2022-07-26T18:35:28.543Z,80.79
2022-07-26T18:40:42.423Z,84.48
2022-07-26T18:43:09.086Z,84.91
2022-07-26T18:45:35.645Z,85.47
2022-07-26T18:48:02.241Z,84.70
2022-07-26T18:50:30.986Z,85.03
2022-07-26T18:52:59.451Z,87.10
2022-07-26T18:55:26.117Z,88.95
2022-07-26T18:57:52.967Z,90.38
2022-07-26T19:00:20.590Z,92.35
2022-07-26T19:02:47.662Z,93.71
2022-07-26T19:05:16.367Z,95.22
2022-07-26T19:07:43.606Z,97.01
2022-07-26T19:10:10.790Z,98.28
2022-07-26T19:12:37.498Z,100.00
2022-07-26T19:15:06.472Z,100.00
2022-07-26T19:17:33.492Z,100.00
2022-07-26T19:20:00.299Z,100.00
2022-07-26T19:22:26.894Z,100.00
2022-07-26T19:24:53.436Z,100.00
2022-07-26T19:27:20.145Z,100.00
2022-07-26T19:29:46.721Z,100.00
2022-07-26T19:32:13.270Z,100.00
2022-07-26T19:34:39.818Z,100.00
2022-07-26T19:37:06.471Z,100.00
2022-07-26T19:39:33.210Z,100.00
2022-07-26T19:41:59.790Z,100.00
2022-07-26T19:44:26.441Z,100.00
2022-07-26T19:46:57.243Z,100.00
2022-07-26T19:49:24.235Z,100.00
2022-07-26T19:51:50.814Z,100.00
2022-07-26T19:54:17.405Z,100.00
2022-07-26T19:56:43.940Z,100.00
2022-07-26T19:59:10.720Z,100.00
2022-07-26T20:01:37.572Z,100.00
2022-07-26T20:04:04.487Z,100.00
2022-07-26T20:06:31.067Z,100.00
2022-07-26T20:08:57.614Z,100.00
2022-07-26T20:11:24.986Z,100.00
2022-07-26T20:13:51.734Z,100.00
2022-07-26T20:16:18.311Z,100.00
2022-07-26T20:18:45.004Z,100.00
2022-07-26T20:21:11.536Z,100.00
2022-07-26T20:23:38.128Z,100.00
2022-07-26T20:26:04.638Z,100.00
2022-07-26T20:28:31.317Z,100.00
2022-07-26T20:30:58.085Z,100.00
2022-07-26T20:33:25.418Z,100.00
2022-07-26T20:35:55.084Z,100.00
2022-07-26T20:38:22.595Z,100.00
2022-07-26T20:40:49.152Z,100.00
2022-07-26T20:43:17.185Z,100.00
2022-07-26T20:45:44.432Z,100.00
2022-07-26T20:48:11.033Z,100.00
2022-07-26T20:50:38.317Z,100.00
2022-07-26T20:53:04.931Z,100.00
2022-07-26T20:58:11.217Z,100.00
2022-07-26T21:00:37.840Z,100.00
2022-07-26T21:03:04.490Z,100.00
2022-07-26T21:05:32.704Z,100.00
2022-07-26T21:07:59.944Z,100.00
2022-07-26T21:10:29.055Z,100.00
2022-07-26T21:12:57.470Z,100.00
2022-07-26T21:15:31.292Z,100.00
2022-07-26T21:17:58.592Z,100.00
2022-07-26T21:20:25.208Z,100.00
2022-07-26T21:22:51.832Z,100.00
2022-07-26T21:25:19.463Z,100.00
2022-07-26T21:27:46.030Z,100.00
2022-07-26T21:32:53.442Z,100.00
2022-07-26T21:35:20.522Z,100.00
2022-07-26T21:37:47.118Z,100.00
2022-07-26T21:40:13.875Z,100.00
2022-07-26T21:42:40.565Z,100.00
2022-07-26T21:45:07.538Z,100.00
2022-07-26T21:47:34.218Z,100.00
2022-07-26T21:50:00.764Z,100.00
2022-07-26T21:52:27.387Z,100.00
2022-07-26T21:55:04.336Z,100.00
2022-07-26T21:57:30.873Z,100.00
2022-07-26T21:59:57.584Z,100.00
2022-07-26T22:02:24.157Z,100.00
2022-07-26T22:04:50.695Z,100.00
2022-07-26T22:07:17.222Z,100.00
2022-07-26T22:09:43.754Z,100.00
2022-07-26T22:12:10.737Z,100.00
2022-07-26T22:14:37.307Z,100.00
2022-07-26T22:17:03.925Z,100.00
2022-07-26T22:19:30.502Z,100.00
2022-07-26T22:21:57.095Z,100.00
2022-07-26T22:24:23.687Z,100.00
2022-07-26T22:26:50.321Z,100.00
2022-07-26T22:29:16.850Z,100.00
2022-07-26T22:31:43.448Z,100.00
2022-07-26T22:34:10.098Z,100.00
2022-07-26T22:36:37.179Z,100.00
2022-07-26T22:39:05.500Z,100.00
2022-07-26T22:41:51.467Z,100.00
2022-07-26T22:44:22.277Z,100.00
2022-07-26T22:46:49.080Z,100.00
2022-07-26T22:49:15.721Z,100.00
2022-07-26T22:51:42.425Z,100.00
2022-07-26T22:54:08.972Z,100.00
2022-07-26T22:56:35.541Z,100.00
2022-07-26T22:59:02.052Z,100.00
2022-07-26T23:01:29.018Z,100.00
2022-07-26T23:03:56.290Z,100.00
2022-07-26T23:06:31.481Z,100.00
2022-07-26T23:08:58.834Z,100.00
2022-07-26T23:11:25.374Z,100.00
2022-07-26T23:13:51.993Z,100.00
2022-07-26T23:16:26.018Z,100.00
2022-07-26T23:18:52.800Z,100.00
2022-07-26T23:21:19.328Z,100.00
2022-07-26T23:23:45.878Z,100.00
2022-07-26T23:26:12.417Z,100.00
2022-07-26T23:28:38.984Z,100.00
2022-07-26T23:31:07.845Z,100.00
2022-07-26T23:33:51.414Z,100.00
2022-07-26T23:36:22.172Z,100.00
2022-07-26T23:38:48.760Z,100.00
2022-07-26T23:41:15.411Z,100.00
2022-07-26T23:43:41.953Z,100.00
2022-07-26T23:46:08.557Z,100.00
2022-07-26T23:48:35.160Z,100.00
2022-07-26T23:51:01.854Z,100.00
2022-07-26T23:53:28.374Z,100.00
2022-07-26T23:55:54.922Z,100.00
2022-07-26T23:58:21.732Z,100.00
